Time;durP1;ratioP1;P1;durP2;ratioP2;P2;SDS_P1;SDS_P2;PMS_P1;PMS_P2;Temp;Humidity;BMP_temperature;BMP_pressure;BME280_temperature;BME280_humidity;BME280_pressure;Samples;Min_cycle;Max_cycle;Signal;HPM_P1;HPM_P2
2022/01/24 00:01:17;;;;;;;61.85;27.77;;;;;;;4.11;91.13;103410.09;5025428;28;20025;-77
2022/01/24 00:03:42;;;;;;;60.53;28.38;;;;;;;4.14;90.59;103419.94;5027786;28;20025;-78
2022/01/24 00:06:10;;;;;;;67.00;29.45;;;;;;;4.12;90.43;103414.56;5018668;28;20018;-78
2022/01/24 00:08:36;;;;;;;61.92;26.75;;;;;;;4.12;89.87;103408.28;5021136;28;20022;-75
2022/01/24 00:11:06;;;;;;;54.17;26.42;;;;;;;4.13;90.11;103410.06;5024019;28;20033;-78
2022/01/24 00:14:23;;;;;;;58.22;26.77;;;;;;;4.11;89.67;103403.81;5023826;28;20036;-77
2022/01/24 00:27:05;;;;;;;54.97;26.17;;;;;;;4.07;89.91;103411.00;5016596;28;20104;-78
2022/01/24 00:29:31;;;;;;;62.00;27.85;;;;;;;4.08;90.12;103410.09;5027205;28;20132;-78
2022/01/24 00:31:56;;;;;;;57.15;26.83;;;;;;;4.10;89.09;103402.88;5014420;28;20034;-78
2022/01/24 00:34:23;;;;;;;56.08;25.48;;;;;;;4.11;89.86;103410.09;5023927;28;20425;-79
2022/01/24 00:36:50;;;;;;;54.47;26.35;;;;;;;4.08;88.67;103405.59;5013471;28;20009;-78
2022/01/24 00:39:16;;;;;;;60.10;25.65;;;;;;;4.07;87.65;103403.81;5028772;28;20040;-75
2022/01/24 00:46:42;;;;;;;56.40;25.00;;;;;;;4.00;88.50;103391.25;5013230;28;20515;-79
2022/01/24 00:49:38;;;;;;;50.90;23.35;;;;;;;4.00;86.92;103398.44;5024059;28;20030;-79
2022/01/24 00:54:52;;;;;;;42.22;20.70;;;;;;;4.01;85.10;103405.63;5011456;28;20256;-78
2022/01/24 00:57:18;;;;;;;46.28;21.90;;;;;;;4.02;85.23;103410.13;5026399;28;20034;-79
2022/01/24 00:59:44;;;;;;;44.67;21.92;;;;;;;3.99;86.45;103408.31;5025279;28;20048;-78
2022/01/24 01:02:09;;;;;;;49.70;22.50;;;;;;;3.99;85.98;103404.75;5015925;28;20393;-78
2022/01/24 01:05:07;;;;;;;45.17;22.02;;;;;;;3.98;86.24;103405.66;5013879;28;20041;-76
2022/01/24 01:07:37;;;;;;;49.78;21.52;;;;;;;3.97;86.37;103395.78;5025926;28;20064;-76
2022/01/24 01:18:19;;;;;;;47.05;22.98;;;;;;;3.97;85.42;103393.97;5010221;28;20108;-79
2022/01/24 01:21:07;;;;;;;47.83;22.10;;;;;;;3.99;84.76;103392.16;5011339;28;20549;-77
2022/01/24 01:23:36;;;;;;;42.22;21.33;;;;;;;3.97;84.73;103387.69;5017768;28;20742;-78
2022/01/24 01:26:06;;;;;;;44.58;21.58;;;;;;;3.96;84.36;103388.56;5025612;28;20029;-76
2022/01/24 01:28:32;;;;;;;44.33;20.75;;;;;;;3.96;84.54;103386.78;5021804;28;20029;-75
2022/01/24 01:31:03;;;;;;;46.47;21.50;;;;;;;3.93;84.75;103377.84;5019615;28;20242;-76
2022/01/24 01:52:46;;;;;;;41.00;20.92;;;;;;;3.92;86.18;103378.75;5019442;28;20037;-78
2022/01/24 01:57:39;;;;;;;40.53;21.67;;;;;;;3.93;86.81;103388.63;5013603;28;20029;-78
2022/01/24 02:00:07;;;;;;;51.75;22.42;;;;;;;3.94;86.74;103393.09;5017388;28;20057;-75
2022/01/24 02:02:33;;;;;;;46.92;20.75;;;;;;;3.91;85.91;103391.28;5019206;28;20517;-78
2022/01/24 02:04:58;;;;;;;44.25;21.50;;;;;;;3.89;86.53;103387.72;5024758;28;20021;-75
2022/01/24 02:07:24;;;;;;;46.17;20.63;;;;;;;3.89;85.22;103392.22;5012753;28;20034;-78
2022/01/24 02:09:49;;;;;;;41.45;21.63;;;;;;;3.90;85.22;103394.00;5010485;28;20401;-78
2022/01/24 02:12:18;;;;;;;39.88;20.60;;;;;;;3.86;86.71;103382.34;5007255;28;20030;-77
2022/01/24 02:14:53;;;;;;;41.55;20.17;;;;;;;3.86;85.34;103376.94;5025105;28;20057;-78
2022/01/24 02:17:28;;;;;;;42.50;20.45;;;;;;;3.88;86.97;103379.66;5012207;28;20024;-78
2022/01/24 02:20:10;;;;;;;44.33;21.95;;;;;;;3.84;87.25;103374.28;5018243;28;20032;-78
2022/01/24 02:22:46;;;;;;;43.47;21.55;;;;;;;3.87;88.07;103378.75;5020669;28;20053;-78
2022/01/24 02:25:24;;;;;;;41.08;18.73;;;;;;;3.88;87.21;103366.19;5012407;28;20032;-74
2022/01/24 02:27:56;;;;;;;38.83;19.30;;;;;;;3.81;85.82;103365.31;5013473;28;20034;-78
2022/01/24 02:33:02;;;;;;;40.05;19.75;;;;;;;3.83;87.44;103367.09;5017046;28;20037;-74
2022/01/24 02:35:28;;;;;;;40.88;20.10;;;;;;;3.80;86.61;103364.41;5015129;28;20495;-78
2022/01/24 02:37:54;;;;;;;38.72;20.33;;;;;;;3.82;86.48;103372.47;5020083;28;20026;-78
2022/01/24 02:40:21;;;;;;;43.75;19.83;;;;;;;3.80;87.19;103368.91;5012280;28;20030;-77
2022/01/24 02:51:23;;;;;;;43.88;20.58;;;;;;;3.80;85.97;103358.13;5017074;28;20042;-78
2022/01/24 02:53:48;;;;;;;37.00;19.10;;;;;;;3.82;85.66;103362.63;5023887;28;20017;-78
2022/01/24 02:56:14;;;;;;;41.75;20.65;;;;;;;3.83;86.52;103359.03;5011086;28;20036;-78
2022/01/24 02:58:39;;;;;;;45.92;21.48;;;;;;;3.84;84.80;103358.13;5022175;28;20030;-78
2022/01/24 03:01:07;;;;;;;38.25;19.75;;;;;;;3.83;85.80;103359.03;5017222;28;20415;-77
2022/01/24 03:03:33;;;;;;;36.38;18.30;;;;;;;3.83;86.05;103359.03;5012962;28;20028;-75
2022/01/24 03:05:59;;;;;;;42.47;20.05;;;;;;;3.82;85.98;103356.31;5015598;28;20033;-77
2022/01/24 03:08:24;;;;;;;37.67;18.90;;;;;;;3.81;87.44;103352.72;5010174;28;20033;-78
2022/01/24 03:10:52;;;;;;;42.50;20.35;;;;;;;3.83;87.03;103352.75;5022100;28;20029;-77
2022/01/24 03:13:29;;;;;;;40.30;18.67;;;;;;;3.82;83.69;103342.84;5017915;28;20037;-78
2022/01/24 03:15:57;;;;;;;43.00;19.15;;;;;;;3.83;86.27;103348.25;5010285;28;20061;-78
2022/01/24 03:18:23;;;;;;;38.00;18.00;;;;;;;3.81;86.68;103352.72;5014959;28;20386;-74
2022/01/24 03:20:49;;;;;;;38.17;18.30;;;;;;;3.78;86.56;103349.19;5013768;28;20025;-74
2022/01/24 03:23:16;;;;;;;38.47;19.55;;;;;;;3.76;84.83;103346.47;5016036;28;20038;-78
2022/01/24 03:25:43;;;;;;;35.60;18.02;;;;;;;3.73;86.59;103338.44;5015541;28;20041;-74
2022/01/24 03:28:09;;;;;;;38.42;18.00;;;;;;;3.76;85.65;103341.09;5016505;28;20029;-79
2022/01/24 03:30:36;;;;;;;36.10;17.88;;;;;;;3.76;87.57;103341.09;5015633;28;20080;-78
2022/01/24 03:33:03;;;;;;;38.40;18.85;;;;;;;3.73;85.76;103337.50;5023094;28;20032;-78
2022/01/24 03:35:28;;;;;;;37.53;18.88;;;;;;;3.74;84.53;103336.63;5016083;28;20608;-74
2022/01/24 03:37:54;;;;;;;38.85;18.20;;;;;;;3.77;85.87;103341.97;5024464;28;20032;-75
2022/01/24 03:40:19;;;;;;;36.63;17.08;;;;;;;3.76;86.36;103338.41;5020642;28;20069;-78
2022/01/24 03:42:44;;;;;;;41.63;20.15;;;;;;;3.76;85.43;103345.59;5011081;28;20022;-77
2022/01/24 03:45:11;;;;;;;38.05;20.85;;;;;;;3.73;86.04;103338.44;5019097;28;20029;-78
2022/01/24 03:50:05;;;;;;;42.45;19.95;;;;;;;3.73;84.80;103350.97;5027311;28;20488;-78
2022/01/24 03:52:31;;;;;;;38.45;17.23;;;;;;;3.73;83.83;103343.81;5019813;28;20441;-78
2022/01/24 03:54:58;;;;;;;36.83;18.50;;;;;;;3.74;84.21;103352.78;5012294;28;20033;-74
2022/01/24 03:57:24;;;;;;;36.63;18.20;;;;;;;3.72;84.26;103342.00;5015650;28;20029;-77
2022/01/24 03:59:50;;;;;;;36.20;18.25;;;;;;;3.72;84.77;103339.31;5020466;28;20542;-78
2022/01/24 04:02:17;;;;;;;37.83;17.70;;;;;;;3.70;84.29;103335.75;5007963;28;20088;-74
2022/01/24 04:04:42;;;;;;;38.35;18.67;;;;;;;3.73;83.53;103337.50;5026011;28;20037;-78
2022/01/24 04:07:08;;;;;;;41.00;18.65;;;;;;;3.71;84.65;103337.53;5018092;28;20469;-77
2022/01/24 04:09:35;;;;;;;40.72;19.08;;;;;;;3.72;84.49;103342.00;5009267;28;20390;-77
2022/01/24 04:12:01;;;;;;;34.67;17.42;;;;;;;3.71;84.96;103334.84;5023461;28;20095;-79
2022/01/24 04:14:34;;;;;;;36.25;18.35;;;;;;;3.70;85.43;103334.84;5014217;28;20032;-78
2022/01/24 04:17:19;;;;;;;40.75;18.38;;;;;;;3.70;85.26;103338.44;5010708;28;20025;-78
2022/01/24 04:22:33;;;;;;;;;;;;;;;3.72;86.03;103333.03;5012216;28;20460;-75
2022/01/24 04:25:00;;;;;;;39.22;18.25;;;;;;;3.65;85.70;103334.88;5017449;28;19916;-75
2022/01/24 04:27:27;;;;;;;35.20;17.92;;;;;;;3.64;84.78;103333.09;5016999;28;20028;-77
2022/01/24 04:29:53;;;;;;;43.03;19.00;;;;;;;3.64;81.28;103330.38;5019545;28;20030;-75
2022/01/24 04:32:19;;;;;;;37.67;18.52;;;;;;;3.68;84.34;103331.25;5022804;28;20431;-77
2022/01/24 04:34:45;;;;;;;37.03;19.60;;;;;;;3.67;84.51;103332.16;5017300;28;20025;-77
2022/01/24 04:37:10;;;;;;;35.72;18.50;;;;;;;3.66;84.85;103333.97;5022380;28;20536;-74
2022/01/24 04:39:36;;;;;;;41.00;19.45;;;;;;;3.67;85.56;103342.91;5025689;28;20039;-77
2022/01/24 04:42:09;;;;;;;38.63;19.30;;;;;;;3.67;85.00;103345.63;5023024;28;20021;-78
2022/01/24 04:47:31;;;;;;;35.70;18.85;;;;;;;3.68;85.76;103342.00;5015979;28;20037;-77
2022/01/24 04:55:06;;;;;;;35.45;18.05;;;;;;;3.64;86.01;103338.47;5024024;28;20053;-77
2022/01/24 04:57:31;;;;;;;39.25;19.13;;;;;;;3.63;87.11;103335.75;5017969;28;20030;-74
2022/01/24 05:00:00;;;;;;;40.90;18.67;;;;;;;3.62;86.22;103344.75;5025223;28;20050;-78
2022/01/24 05:02:26;;;;;;;40.47;19.00;;;;;;;3.62;86.97;103347.44;5021826;28;20033;-77
2022/01/24 05:04:56;;;;;;;31.75;17.00;;;;;;;3.62;86.46;103345.63;5014077;28;20022;-75
2022/01/24 05:07:23;;;;;;;39.55;19.67;;;;;;;3.63;87.16;103349.22;5017851;28;20428;-77
2022/01/24 05:10:01;;;;;;;39.63;18.60;;;;;;;3.61;86.19;103351.03;5020265;28;20014;-78
2022/01/24 05:25:52;;;;;;;37.97;17.35;;;;;;;3.56;86.91;103342.97;5009301;28;20540;-78
2022/01/24 05:28:17;;;;;;;37.28;19.60;;;;;;;3.55;86.89;103336.69;5009641;28;20038;-78
2022/01/24 05:30:43;;;;;;;34.88;16.98;;;;;;;3.57;86.49;103339.38;5012883;28;20033;-77
2022/01/24 05:33:08;;;;;;;37.53;19.60;;;;;;;3.57;86.05;103339.38;5011396;28;20057;-78
2022/01/24 05:35:33;;;;;;;43.20;19.55;;;;;;;3.57;85.82;103331.28;5017176;28;20485;-78
2022/01/24 05:37:59;;;;;;;40.60;20.33;;;;;;;3.54;85.38;103326.84;5015162;28;20738;-78
2022/01/24 05:40:24;;;;;;;38.05;18.00;;;;;;;3.58;85.53;103333.06;5022513;28;20117;-78
2022/01/24 05:42:49;;;;;;;43.58;19.35;;;;;;;3.57;86.54;103337.56;5010443;28;20035;-78
2022/01/24 05:45:15;;;;;;;33.88;17.75;;;;;;;3.57;86.04;103340.25;5015551;28;20025;-78
2022/01/24 05:47:40;;;;;;;38.08;19.13;;;;;;;3.56;85.45;103335.78;5009759;28;20121;-78
2022/01/24 05:50:06;;;;;;;40.25;20.20;;;;;;;3.55;85.98;103342.06;5023145;28;20099;-78
2022/01/24 05:52:31;;;;;;;39.45;19.45;;;;;;;3.54;85.90;103339.38;5029298;28;20548;-78
2022/01/24 05:54:57;;;;;;;41.30;20.63;;;;;;;3.54;86.18;103344.75;5015781;28;20033;-78
2022/01/24 05:57:22;;;;;;;44.67;20.70;;;;;;;3.54;86.24;103347.44;5018773;28;20032;-78
2022/01/24 05:59:47;;;;;;;40.72;20.52;;;;;;;3.49;86.04;103336.69;5019552;28;20054;-78
2022/01/24 06:02:12;;;;;;;44.78;21.98;;;;;;;3.51;86.21;103347.47;5011164;28;20478;-77
2022/01/24 06:04:38;;;;;;;43.17;21.45;;;;;;;3.50;85.04;103341.19;5009969;28;20040;-75
2022/01/24 06:07:03;;;;;;;45.72;21.58;;;;;;;3.53;84.67;103337.59;5014458;28;20029;-74
2022/01/24 06:09:28;;;;;;;45.47;22.13;;;;;;;3.52;84.46;103339.38;5018662;28;20041;-77
2022/01/24 06:11:54;;;;;;;45.40;22.15;;;;;;;3.52;85.26;103338.50;5021228;28;20052;-77
2022/01/24 06:14:19;;;;;;;45.75;22.98;;;;;;;3.52;84.90;103338.50;5013191;28;20032;-77
2022/01/24 06:16:45;;;;;;;45.28;22.15;;;;;;;3.52;84.64;103336.69;5021526;28;20021;-77
2022/01/24 06:19:10;;;;;;;44.83;21.77;;;;;;;3.51;84.96;103336.72;5011028;28;20022;-78
2022/01/24 06:21:36;;;;;;;41.65;20.35;;;;;;;3.52;85.59;103333.09;5007932;28;20030;-74
2022/01/24 06:24:02;;;;;;;43.53;20.52;;;;;;;3.48;86.28;103329.53;5008728;28;20061;-77
2022/01/24 06:26:27;;;;;;;46.92;20.80;;;;;;;3.51;85.75;103342.97;5008112;28;20060;-77
2022/01/24 06:28:52;;;;;;;44.80;20.48;;;;;;;3.48;85.08;103339.41;5007793;28;20429;-74
2022/01/24 06:31:19;;;;;;;43.20;20.67;;;;;;;3.51;86.19;103342.09;5014603;28;20029;-77
2022/01/24 06:33:44;;;;;;;48.30;22.67;;;;;;;3.50;85.62;103332.22;5008144;28;20034;-77
2022/01/24 06:36:09;;;;;;;45.83;21.73;;;;;;;3.50;85.61;103337.63;5007557;28;20026;-77
2022/01/24 06:38:35;;;;;;;46.42;22.30;;;;;;;3.49;85.20;103339.38;5006914;28;20040;-77
2022/01/24 06:41:00;;;;;;;45.17;22.33;;;;;;;3.49;84.65;103338.50;5005439;28;20037;-78
2022/01/24 06:43:26;;;;;;;46.08;20.90;;;;;;;3.51;85.58;103342.09;5007960;28;20040;-78
2022/01/24 06:45:51;;;;;;;50.90;23.38;;;;;;;3.50;85.40;103334.94;5007542;28;20076;-77
2022/01/24 06:48:17;;;;;;;43.80;21.05;;;;;;;3.48;85.03;103336.69;5008500;28;20087;-75
2022/01/24 06:50:42;;;;;;;41.58;20.30;;;;;;;3.46;85.12;103343.91;5022688;28;20099;-78
2022/01/24 06:53:08;;;;;;;42.60;20.45;;;;;;;3.46;82.44;103338.50;5007970;28;20026;-76
2022/01/24 06:55:33;;;;;;;39.25;19.65;;;;;;;3.48;83.43;103337.59;5006542;28;20037;-78
2022/01/24 06:57:58;;;;;;;41.78;20.38;;;;;;;3.48;83.89;103342.09;5006931;28;20069;-74
2022/01/24 07:00:26;;;;;;;40.88;20.10;;;;;;;3.48;84.33;103348.38;5006040;28;20520;-77
2022/01/24 07:02:55;;;;;;;44.58;20.85;;;;;;;3.48;85.07;103344.78;5007575;28;20021;-78
2022/01/24 07:05:21;;;;;;;42.17;21.05;;;;;;;3.50;85.17;103348.38;5021325;28;20037;-78
2022/01/24 07:07:46;;;;;;;41.60;20.48;;;;;;;3.47;85.17;103351.97;5006233;28;20494;-77
2022/01/24 07:10:12;;;;;;;41.55;20.15;;;;;;;3.47;85.28;103351.06;5009218;28;20116;-77
2022/01/24 07:12:37;;;;;;;39.70;19.77;;;;;;;3.46;86.31;103352.88;5022019;28;20033;-77
2022/01/24 07:15:08;;;;;;;39.35;18.73;;;;;;;3.47;85.07;103353.75;5023074;28;20636;-77
2022/01/24 07:17:58;;;;;;;37.63;18.55;;;;;;;3.47;86.07;103356.44;5021745;28;20025;-74
2022/01/24 07:20:19;;;;;;;41.88;19.40;;;;;;;3.46;86.03;103360.94;5021086;28;20613;-74
2022/01/24 07:22:44;;;;;;;47.83;19.35;;;;;;;3.48;85.87;103364.50;5024245;28;20048;-77
2022/01/24 07:25:10;;;;;;;42.25;18.88;;;;;;;3.47;84.63;103360.03;5023913;28;20075;-78
2022/01/24 07:27:35;;;;;;;41.47;19.83;;;;;;;3.47;86.18;103362.72;5021675;28;20025;-77
2022/01/24 07:30:03;;;;;;;40.88;19.23;;;;;;;3.48;86.42;103363.63;5024138;28;20401;-74
2022/01/24 07:32:29;;;;;;;46.42;19.70;;;;;;;3.49;86.75;103360.00;5022070;28;20033;-74
2022/01/24 07:34:54;;;;;;;40.15;18.48;;;;;;;3.48;87.26;103369.88;5027083;28;20033;-77
2022/01/24 07:37:21;;;;;;;45.47;20.05;;;;;;;3.47;87.28;103361.84;5014396;28;20018;-77
2022/01/24 07:39:47;;;;;;;39.53;18.65;;;;;;;3.48;87.56;103356.44;5007157;28;20068;-78
2022/01/24 07:42:16;;;;;;;39.03;18.60;;;;;;;3.46;87.54;103358.25;5016282;28;20420;-77
2022/01/24 07:44:42;;;;;;;37.40;18.60;;;;;;;3.43;87.46;103358.25;5015139;28;20033;-77
2022/01/24 07:47:07;;;;;;;38.92;18.17;;;;;;;3.43;87.64;103363.63;5009450;28;20026;-78
2022/01/24 07:49:34;;;;;;;39.92;17.88;;;;;;;3.41;87.93;103351.97;5012749;28;20433;-77
2022/01/24 07:52:00;;;;;;;45.53;19.42;;;;;;;3.44;87.85;103367.22;5006290;28;20367;-74
2022/01/24 07:54:25;;;;;;;38.75;18.25;;;;;;;3.45;88.03;103366.31;5007688;28;20112;-74
2022/01/24 07:56:50;;;;;;;40.63;17.25;;;;;;;3.44;88.04;103376.16;5020556;28;20120;-78
2022/01/24 07:59:15;;;;;;;40.55;18.20;;;;;;;3.45;87.98;103382.44;5012917;28;20041;-78
2022/01/24 08:01:42;;;;;;;39.60;17.48;;;;;;;3.48;87.69;103396.81;5017503;28;20018;-79
2022/01/24 08:04:08;;;;;;;39.20;17.85;;;;;;;3.46;87.91;103390.53;5027045;28;20026;-74
2022/01/24 08:06:33;;;;;;;44.08;18.65;;;;;;;3.49;88.05;103395.00;5019207;28;20033;-78
2022/01/24 08:08:58;;;;;;;42.22;18.20;;;;;;;3.49;88.04;103392.31;5022303;28;20057;-78
2022/01/24 08:11:24;;;;;;;35.33;16.52;;;;;;;3.49;87.95;103392.31;5019750;28;20475;-78
2022/01/24 08:13:51;;;;;;;37.53;17.30;;;;;;;3.50;87.50;103403.09;5021087;28;20083;-79
2022/01/24 08:16:16;;;;;;;33.53;17.33;;;;;;;3.51;87.13;103402.19;5021322;28;20025;-77
2022/01/24 08:18:41;;;;;;;37.20;17.70;;;;;;;3.50;86.81;103396.81;5016474;28;20105;-79
2022/01/24 08:21:07;;;;;;;35.22;15.80;;;;;;;3.51;86.63;103398.59;5020147;28;20061;-78
2022/01/24 08:23:32;;;;;;;35.67;16.38;;;;;;;3.49;87.01;103393.19;5010600;28;20465;-77
2022/01/24 08:25:57;;;;;;;33.42;15.82;;;;;;;3.49;87.24;103393.19;5013622;28;20553;-77
2022/01/24 08:28:23;;;;;;;39.13;16.95;;;;;;;3.51;86.59;103393.22;5009032;28;20109;-77
2022/01/24 08:30:48;;;;;;;36.28;15.48;;;;;;;3.52;85.48;103401.28;5023759;28;20080;-78
2022/01/24 08:33:13;;;;;;;35.15;16.52;;;;;;;3.54;85.13;103403.97;5013635;28;20038;-77
2022/01/24 08:35:39;;;;;;;35.53;15.95;;;;;;;3.54;85.87;103393.19;5021302;28;20432;-78
2022/01/24 08:38:04;;;;;;;34.60;17.40;;;;;;;3.53;86.20;103397.69;5028622;28;20067;-77
2022/01/24 08:40:32;;;;;;;38.70;16.30;;;;;;;3.55;86.35;103395.91;5023329;28;20026;-77
2022/01/24 08:43:04;;;;;;;42.38;17.75;;;;;;;3.57;85.34;103401.28;5021885;28;20065;-78
2022/01/24 08:45:58;;;;;;;41.83;18.27;;;;;;;3.58;86.01;103403.06;5025752;28;20036;-78
2022/01/24 08:48:21;;;;;;;46.88;20.10;;;;;;;3.55;85.83;103397.69;5015222;28;20030;-74
2022/01/24 08:50:52;;;;;;;43.60;20.42;;;;;;;3.59;86.28;103404.88;5024594;28;20022;-78
2022/01/24 08:53:18;;;;;;;44.30;21.00;;;;;;;3.60;85.33;103408.47;5025559;28;20061;-78
2022/01/24 08:55:43;;;;;;;44.95;21.88;;;;;;;3.60;85.25;103414.72;5019320;28;20061;-77
2022/01/24 08:58:13;;;;;;;44.28;21.05;;;;;;;3.59;84.41;103407.56;5018246;28;20386;-74
2022/01/24 09:00:40;;;;;;;42.97;21.95;;;;;;;3.56;83.95;103405.75;5026125;28;20056;-74
2022/01/24 09:03:05;;;;;;;42.03;20.15;;;;;;;3.56;84.11;103413.84;5032770;28;20026;-74
2022/01/24 09:05:34;;;;;;;45.47;21.20;;;;;;;3.56;84.63;103404.88;5028685;28;20021;-78
2022/01/24 09:08:00;;;;;;;44.05;21.48;;;;;;;3.59;84.29;103410.25;5028568;28;20325;-75
2022/01/24 09:10:26;;;;;;;46.85;20.73;;;;;;;3.59;84.29;103407.56;5023351;28;20021;-78
2022/01/24 09:12:51;;;;;;;44.80;21.33;;;;;;;3.59;84.00;103407.56;5025989;28;20048;-78
2022/01/24 09:15:17;;;;;;;46.25;21.30;;;;;;;3.60;84.74;103411.16;5021415;28;20021;-78
2022/01/24 09:17:43;;;;;;;43.97;20.75;;;;;;;3.62;84.65;103412.03;5021710;28;20072;-78
2022/01/24 09:20:10;;;;;;;39.47;20.20;;;;;;;3.64;82.95;103415.59;5030457;28;20048;-74
2022/01/24 09:22:35;;;;;;;51.80;21.02;;;;;;;3.65;83.50;103426.38;5026276;28;20414;-76
2022/01/24 09:25:01;;;;;;;44.20;20.83;;;;;;;3.64;83.15;103413.84;5017465;28;20091;-77
2022/01/24 09:27:27;;;;;;;39.47;19.85;;;;;;;3.66;83.30;103405.75;5011782;28;20470;-77
2022/01/24 09:29:52;;;;;;;42.22;20.27;;;;;;;3.67;83.54;103408.41;5018960;28;20104;-74
2022/01/24 09:32:17;;;;;;;46.33;20.63;;;;;;;3.70;84.44;103408.41;5020476;28;20363;-78
2022/01/24 09:34:43;;;;;;;44.13;19.42;;;;;;;3.72;82.63;103409.31;5014540;28;20107;-78
2022/01/24 09:37:08;;;;;;;43.67;20.45;;;;;;;3.76;84.32;103408.41;5030115;28;20390;-77
2022/01/24 09:39:34;;;;;;;40.50;19.42;;;;;;;3.77;82.61;103406.59;5029585;28;20477;-77
2022/01/24 09:42:00;;;;;;;43.13;19.92;;;;;;;3.79;82.50;103411.09;5015882;28;20031;-78
2022/01/24 09:44:25;;;;;;;41.10;20.35;;;;;;;3.77;83.27;103410.19;5027047;28;20028;-77
2022/01/24 09:46:50;;;;;;;44.97;21.23;;;;;;;3.80;83.06;103411.97;5017401;28;20033;-77
2022/01/24 09:49:16;;;;;;;37.97;19.25;;;;;;;3.80;81.52;103410.19;5020465;28;20025;-74
2022/01/24 09:51:44;;;;;;;41.10;19.58;;;;;;;3.80;82.66;103412.88;5027972;28;20492;-78
2022/01/24 09:54:10;;;;;;;40.13;20.70;;;;;;;3.80;83.01;103412.88;5027045;28;20029;-75
2022/01/24 09:56:35;;;;;;;44.80;20.38;;;;;;;3.82;83.48;103405.72;5015570;28;20045;-77
2022/01/24 09:59:02;;;;;;;38.13;19.08;;;;;;;3.84;81.51;103403.88;5022340;28;20053;-78
2022/01/24 10:01:30;;;;;;;41.10;19.50;;;;;;;3.83;81.40;103398.53;5014632;28;20034;-78
2022/01/24 10:04:25;;;;;;;39.80;18.83;;;;;;;3.87;83.66;103410.16;5026681;28;20059;-77
2022/01/24 10:06:58;;;;;;;40.30;18.35;;;;;;;3.89;81.80;103411.94;5015581;28;20095;-77
2022/01/24 10:09:33;;;;;;;40.97;20.50;;;;;;;3.91;80.96;103404.75;5028932;28;20026;-77
2022/01/24 10:12:12;;;;;;;36.78;19.13;;;;;;;3.89;79.47;103405.69;5025371;28;20087;-77
2022/01/24 10:17:29;;;;;;;43.42;19.17;;;;;;;3.92;81.95;103401.19;5010254;28;20452;-74
2022/01/24 10:19:55;;;;;;;37.92;18.77;;;;;;;3.94;80.62;103398.47;5022049;28;20021;-77
2022/01/24 10:22:23;;;;;;;39.20;18.55;;;;;;;3.95;78.71;103406.53;5020964;28;20065;-77
2022/01/24 10:24:51;;;;;;;37.35;19.20;;;;;;;3.93;78.50;103408.34;5017721;28;20116;-78
2022/01/24 10:27:18;;;;;;;42.08;20.33;;;;;;;3.94;80.44;103409.25;5026235;28;20074;-78
2022/01/24 10:29:52;;;;;;;40.10;19.50;;;;;;;4.03;82.82;103411.91;5022322;28;20037;-78
2022/01/24 10:32:39;;;;;;;43.55;21.42;;;;;;;4.14;83.42;103404.66;5014033;28;20029;-77
2022/01/24 10:35:38;;;;;;;37.50;19.17;;;;;;;4.20;82.30;103404.66;5015090;28;20060;-77
2022/01/24 10:41:28;;;;;;;40.45;18.75;;;;;;;4.27;79.58;103392.94;5005544;28;20048;-78
2022/01/24 10:43:56;;;;;;;38.13;18.42;;;;;;;4.24;79.42;103402.81;5016238;28;20026;-74
2022/01/24 10:46:26;;;;;;;40.05;18.30;;;;;;;4.20;78.39;103384.91;5024588;28;20102;-77
2022/01/24 10:49:06;;;;;;;39.20;17.58;;;;;;;4.21;79.53;103398.34;5021842;28;20037;-77
2022/01/24 10:51:41;;;;;;;36.03;18.20;;;;;;;4.21;78.93;103384.00;5023288;28;20062;-77
2022/01/24 10:54:06;;;;;;;38.35;18.20;;;;;;;4.23;78.17;103382.19;5028104;28;20079;-77
2022/01/24 10:56:38;;;;;;;36.40;17.42;;;;;;;4.23;78.60;103391.16;5017623;28;20428;-77
2022/01/24 10:59:06;;;;;;;36.42;16.85;;;;;;;4.21;78.17;103386.69;5015215;28;20115;-77
2022/01/24 11:01:32;;;;;;;34.42;18.25;;;;;;;4.21;80.41;103386.69;5019788;28;20222;-77
2022/01/24 11:04:06;;;;;;;37.92;17.23;;;;;;;4.26;80.88;103379.47;5019238;28;20098;-77
2022/01/24 11:06:37;;;;;;;38.17;17.95;;;;;;;4.26;79.25;103382.16;5022864;28;20095;-77
2022/01/24 11:09:26;;;;;;;37.85;18.67;;;;;;;4.31;80.48;103377.66;5026396;28;20692;-77
2022/01/24 11:12:05;;;;;;;37.97;17.80;;;;;;;4.34;79.99;103373.16;5015092;28;20360;-77
2022/01/24 11:14:31;;;;;;;40.92;20.42;;;;;;;4.33;78.78;103375.81;5021133;28;20029;-77
2022/01/24 11:16:59;;;;;;;37.47;18.27;;;;;;;4.33;78.58;103383.91;5015691;28;20030;-77
2022/01/24 11:21:53;;;;;;;40.65;18.52;;;;;;;4.27;80.37;103370.47;5027155;28;20124;-77
2022/01/24 11:24:23;;;;;;;37.67;18.13;;;;;;;4.38;80.94;103382.09;5021856;28;20033;-77
2022/01/24 11:26:48;;;;;;;38.67;19.88;;;;;;;4.41;79.65;103375.78;5008800;28;20393;-77
2022/01/24 11:29:17;;;;;;;39.85;19.80;;;;;;;4.45;79.92;103372.19;5014423;28;20030;-76
2022/01/24 11:32:05;;;;;;;35.35;17.13;;;;;;;4.45;79.48;103369.47;5019863;28;20097;-77
2022/01/24 11:34:37;;;;;;;36.78;18.65;;;;;;;4.42;79.79;103362.28;5008410;28;20037;-78
2022/01/24 11:37:05;;;;;;;37.43;19.20;;;;;;;4.40;77.78;103368.63;5024300;28;20029;-77
2022/01/24 11:39:30;;;;;;;37.17;18.73;;;;;;;4.40;78.83;103372.22;5021241;28;20383;-78
2022/01/24 11:41:56;;;;;;;42.22;19.20;;;;;;;4.45;80.49;103375.75;5012748;28;20124;-74
2022/01/24 11:44:23;;;;;;;42.47;18.48;;;;;;;4.47;78.76;103371.25;5025331;28;20464;-77
2022/01/24 11:46:56;;;;;;;41.33;18.77;;;;;;;4.46;78.19;103371.28;5016898;28;20113;-74
2022/01/24 11:49:27;;;;;;;39.28;18.75;;;;;;;4.46;78.20;103366.78;5008340;28;20030;-77
2022/01/24 11:52:07;;;;;;;38.72;18.38;;;;;;;4.52;79.89;103366.75;5024262;28;20048;-77
2022/01/24 11:54:45;;;;;;;41.55;18.77;;;;;;;4.50;77.49;103360.47;5027290;28;20671;-77
2022/01/24 11:57:32;;;;;;;40.55;20.13;;;;;;;4.48;78.29;103358.69;5025740;28;20030;-77
2022/01/24 12:00:00;;;;;;;38.67;18.55;;;;;;;4.54;79.83;103355.94;5024030;28;20580;-75
2022/01/24 12:02:30;;;;;;;40.88;18.48;;;;;;;4.57;78.28;103353.25;5012991;28;20101;-73
2022/01/24 12:04:59;;;;;;;42.25;19.38;;;;;;;4.58;77.91;103347.81;5022497;28;20366;-74
2022/01/24 12:07:30;;;;;;;35.97;18.73;;;;;;;4.64;79.22;103343.28;5007327;28;20490;-77
2022/01/24 12:10:21;;;;;;;39.63;17.83;;;;;;;4.68;78.67;103342.38;5006231;28;20091;-77
2022/01/24 12:12:49;;;;;;;39.90;18.48;;;;;;;4.65;75.97;103345.06;5020119;28;20393;-77
2022/01/24 12:15:36;;;;;;;39.53;18.30;;;;;;;4.70;79.14;103344.13;5008511;28;20478;-77
2022/01/24 12:18:08;;;;;;;42.67;18.27;;;;;;;4.70;75.55;103340.53;5006593;28;20567;-75
2022/01/24 12:20:37;;;;;;;39.53;19.15;;;;;;;4.69;76.29;103341.44;5005641;28;20022;-77
2022/01/24 12:23:20;;;;;;;37.35;18.88;;;;;;;4.69;77.49;103342.34;5004668;28;20448;-77
2022/01/24 12:25:57;;;;;;;36.85;18.80;;;;;;;4.72;78.28;103336.06;5015116;28;20025;-74
2022/01/24 12:28:46;;;;;;;34.92;16.88;;;;;;;4.83;77.94;103339.53;5007391;28;20370;-78
2022/01/24 12:31:21;;;;;;;40.47;19.35;;;;;;;4.89;79.93;103339.47;5008965;28;20099;-77
2022/01/24 12:33:58;;;;;;;39.58;18.40;;;;;;;4.89;77.45;103331.38;5013733;28;20050;-77
2022/01/24 12:36:47;;;;;;;37.22;18.02;;;;;;;4.79;77.04;103330.56;5023197;28;20508;-78
2022/01/24 12:39:16;;;;;;;40.58;18.38;;;;;;;4.69;76.00;103336.06;5027318;28;20466;-77
2022/01/24 12:41:50;;;;;;;35.60;17.95;;;;;;;4.60;75.81;103335.22;5013377;28;20022;-74
2022/01/24 12:47:34;;;;;;;36.80;17.38;;;;;;;4.51;76.64;103323.59;5015358;28;20044;-77
2022/01/24 12:50:00;;;;;;;37.92;17.88;;;;;;;4.54;76.01;103326.28;5012225;28;20046;-77
2022/01/24 12:52:28;;;;;;;37.25;18.38;;;;;;;4.58;76.89;103317.28;5018222;28;20033;-76
2022/01/24 12:54:57;;;;;;;38.20;17.55;;;;;;;4.56;75.53;103321.78;5020620;28;20112;-74
2022/01/24 12:57:29;;;;;;;37.53;18.27;;;;;;;4.58;76.26;103319.97;5026356;28;20022;-77
2022/01/24 13:00:09;;;;;;;38.35;17.80;;;;;;;4.59;75.84;103317.25;5023854;28;20056;-73
2022/01/24 13:02:38;;;;;;;37.58;17.92;;;;;;;4.68;78.25;103313.59;5019580;28;20032;-74